Time;durP1;ratioP1;P1;durP2;ratioP2;P2;SDS_P1;SDS_P2;PMS_P1;PMS_P2;Temp;Humidity;BMP_temperature;BMP_pressure;BME280_temperature;BME280_humidity;BME280_pressure;Samples;Min_cycle;Max_cycle;Signal;HPM_P1;HPM_P2
2022/11/15 00:01:09;;;;;;;4.93;1.73;;;6.10;99.90;;;;;;5031643;28;20047;-63
2022/11/15 00:03:54;;;;;;;1.63;1.47;;;6.10;99.90;;;;;;5029495;28;20863;-63
2022/11/15 00:06:40;;;;;;;5.50;1.60;;;6.10;99.90;;;;;;5027430;28;20061;-63
2022/11/15 00:09:25;;;;;;;7.18;1.60;;;6.10;99.90;;;;;;5027759;28;20494;-63
2022/11/15 00:12:10;;;;;;;6.63;1.80;;;6.10;99.90;;;;;;5025340;28;20068;-64
2022/11/15 00:14:56;;;;;;;3.85;1.98;;;6.20;99.90;;;;;;5029287;28;20486;-63
2022/11/15 00:17:41;;;;;;;8.15;1.80;;;6.20;99.90;;;;;;5029150;28;20360;-63
2022/11/15 00:20:27;;;;;;;3.58;1.70;;;6.10;99.90;;;;;;5028280;28;20052;-64
2022/11/15 00:23:12;;;;;;;3.22;1.98;;;6.10;99.90;;;;;;5030634;28;20089;-62
2022/11/15 00:25:58;;;;;;;3.70;1.70;;;6.10;99.90;;;;;;5027518;28;20060;-63
2022/11/15 00:28:44;;;;;;;3.25;1.50;;;6.10;99.90;;;;;;5031057;28;20052;-63
2022/11/15 00:31:29;;;;;;;2.42;1.35;;;6.00;99.90;;;;;;5026344;28;20103;-64
2022/11/15 00:34:15;;;;;;;9.00;2.00;;;6.00;99.90;;;;;;5034376;28;20980;-64
2022/11/15 00:37:00;;;;;;;3.78;1.65;;;5.90;99.90;;;;;;5030292;28;20316;-64
2022/11/15 00:39:45;;;;;;;4.00;1.70;;;5.90;99.90;;;;;;5030691;28;20099;-64
2022/11/15 00:42:31;;;;;;;4.80;1.45;;;5.80;99.90;;;;;;5031636;28;20064;-63
2022/11/15 00:45:16;;;;;;;3.25;1.40;;;5.80;99.90;;;;;;5028311;28;20683;-64
2022/11/15 00:48:02;;;;;;;6.22;1.60;;;5.70;99.90;;;;;;5025890;28;20109;-63
2022/11/15 00:50:48;;;;;;;2.58;1.38;;;5.60;99.90;;;;;;5028019;28;20301;-64
2022/11/15 00:53:34;;;;;;;3.50;2.00;;;5.50;99.90;;;;;;5030258;28;20130;-63
2022/11/15 00:56:20;;;;;;;2.22;1.75;;;5.50;99.90;;;;;;5031725;28;20359;-63
2022/11/15 00:59:05;;;;;;;3.65;1.60;;;5.40;99.90;;;;;;5031195;28;20146;-64
2022/11/15 01:01:50;;;;;;;5.70;2.47;;;5.40;99.90;;;;;;5032231;28;20151;-63
2022/11/15 01:04:36;;;;;;;11.60;1.70;;;5.30;99.90;;;;;;5029487;28;20052;-64
2022/11/15 01:07:22;;;;;;;3.05;1.90;;;5.30;99.90;;;;;;5031655;28;20974;-63
2022/11/15 01:10:07;;;;;;;2.63;1.65;;;5.20;99.90;;;;;;5030364;28;20060;-63
2022/11/15 01:12:53;;;;;;;4.32;1.60;;;5.20;99.90;;;;;;5026543;28;20057;-63
2022/11/15 01:15:42;;;;;;;2.95;1.73;;;5.10;99.90;;;;;;5029940;28;20080;-63
2022/11/15 01:18:27;;;;;;;2.42;1.60;;;5.10;99.90;;;;;;5027227;28;20068;-65
2022/11/15 01:21:15;;;;;;;5.20;2.22;;;5.00;99.90;;;;;;5029785;28;20537;-62
2022/11/15 01:24:01;;;;;;;3.30;2.03;;;5.00;99.90;;;;;;5037764;28;20214;-63
2022/11/15 01:26:46;;;;;;;5.38;1.90;;;4.90;99.90;;;;;;5029406;28;20527;-63
2022/11/15 01:29:32;;;;;;;4.38;1.40;;;4.80;99.90;;;;;;5026754;28;20494;-63
2022/11/15 01:32:18;;;;;;;1.98;1.40;;;4.80;99.90;;;;;;5024567;28;20191;-63
2022/11/15 01:35:03;;;;;;;6.00;1.70;;;4.70;99.90;;;;;;5031365;28;20051;-63
2022/11/15 01:37:49;;;;;;;5.25;1.92;;;4.60;99.90;;;;;;5028392;28;20139;-63
2022/11/15 01:40:34;;;;;;;3.00;1.60;;;4.60;99.90;;;;;;5028177;28;20248;-64
2022/11/15 01:43:27;;;;;;;1.73;1.55;;;4.60;99.90;;;;;;5028038;28;20059;-63
2022/11/15 01:46:33;;;;;;;3.53;1.98;;;4.60;99.90;;;;;;5028087;28;20056;-64
2022/11/15 01:49:21;;;;;;;2.75;1.60;;;4.60;99.90;;;;;;5027154;28;20056;-63
2022/11/15 01:52:13;;;;;;;7.35;1.88;;;4.50;99.90;;;;;;5025787;28;20063;-64
2022/11/15 01:55:03;;;;;;;3.42;2.13;;;4.50;99.90;;;;;;5038778;28;20059;-64
2022/11/15 01:57:53;;;;;;;3.67;1.95;;;4.50;99.90;;;;;;5024834;28;20454;-63
2022/11/15 02:00:38;;;;;;;2.38;1.42;;;4.50;99.90;;;;;;5033734;28;20523;-64
2022/11/15 02:03:30;;;;;;;5.38;2.03;;;4.50;99.90;;;;;;5032352;28;20591;-64
2022/11/15 02:06:16;;;;;;;2.85;1.70;;;4.50;99.90;;;;;;5026903;28;20087;-64
2022/11/15 02:09:03;;;;;;;4.95;2.65;;;4.50;99.90;;;;;;5031187;28;20072;-65
2022/11/15 02:11:50;;;;;;;4.32;2.08;;;4.50;99.90;;;;;;5027570;28;20083;-64
2022/11/15 02:14:38;;;;;;;2.63;2.20;;;4.40;99.90;;;;;;5025396;28;20056;-63
2022/11/15 02:17:24;;;;;;;3.20;1.98;;;4.40;99.90;;;;;;5025702;28;20187;-64
2022/11/15 02:20:39;;;;;;;3.10;2.00;;;4.40;99.90;;;;;;5030644;28;20071;-64
2022/11/15 02:23:25;;;;;;;2.95;1.98;;;4.30;99.90;;;;;;5025757;28;20514;-64
2022/11/15 02:26:29;;;;;;;5.38;2.47;;;4.30;99.90;;;;;;5026819;28;20125;-65
2022/11/15 02:29:48;;;;;;;3.78;2.67;;;4.30;99.90;;;;;;5025669;28;20197;-65
2022/11/15 02:32:40;;;;;;;;;;;4.30;99.90;;;;;;5026940;28;20388;-64
2022/11/15 02:35:45;;;;;;;6.70;3.08;;;4.30;99.90;;;;;;5029900;28;20158;-64
2022/11/15 02:38:49;;;;;;;5.10;3.20;;;4.30;99.90;;;;;;5028747;28;20141;-64
2022/11/15 02:41:47;;;;;;;7.68;3.60;;;4.30;99.90;;;;;;5026946;28;20195;-64
2022/11/15 02:44:45;;;;;;;6.95;3.83;;;4.30;99.90;;;;;;5027421;28;20442;-64
2022/11/15 02:47:35;;;;;;;6.45;3.80;;;4.30;99.90;;;;;;5027689;28;20402;-64
2022/11/15 02:50:25;;;;;;;8.00;4.05;;;4.40;99.90;;;;;;5027631;28;20347;-64
2022/11/15 02:53:11;;;;;;;8.00;4.57;;;4.50;99.90;;;;;;5028840;28;20494;-64
2022/11/15 02:55:57;;;;;;;17.27;5.55;;;4.50;99.90;;;;;;5029392;28;20110;-64
2022/11/15 02:59:17;;;;;;;10.45;6.03;;;4.60;99.90;;;;;;5031845;28;20106;-64
2022/11/15 03:02:02;;;;;;;8.50;4.15;;;4.70;99.90;;;;;;5030003;28;20055;-64
2022/11/15 03:04:58;;;;;;;7.28;4.15;;;4.70;99.90;;;;;;5031473;28;20529;-63
2022/11/15 03:07:54;;;;;;;7.03;4.13;;;4.60;99.90;;;;;;5022467;28;20060;-63
2022/11/15 03:11:13;;;;;;;4.35;3.28;;;4.60;99.90;;;;;;5029672;28;20072;-63
2022/11/15 03:14:10;;;;;;;4.78;3.03;;;4.60;99.90;;;;;;5029546;28;20060;-64
2022/11/15 03:17:26;;;;;;;7.47;3.22;;;4.50;99.90;;;;;;5030009;28;20105;-64
2022/11/15 03:20:14;;;;;;;7.70;5.03;;;4.50;99.90;;;;;;5024210;28;20092;-63
2022/11/15 03:23:09;;;;;;;9.32;3.92;;;4.50;99.90;;;;;;5030051;28;20752;-64
2022/11/15 03:25:56;;;;;;;4.72;3.17;;;4.40;99.90;;;;;;5025404;28;20076;-64
2022/11/15 03:28:50;;;;;;;7.35;2.90;;;4.40;99.90;;;;;;5031371;28;20059;-64
2022/11/15 03:31:48;;;;;;;7.70;3.38;;;4.30;99.90;;;;;;5027984;28;20145;-64
2022/11/15 03:34:44;;;;;;;6.05;3.78;;;4.30;99.90;;;;;;5027950;28;20541;-65
2022/11/15 03:37:37;;;;;;;5.55;3.47;;;4.20;99.90;;;;;;5031191;28;20549;-64
2022/11/15 03:40:30;;;;;;;10.20;3.97;;;4.20;99.90;;;;;;5026164;28;20052;-65
2022/11/15 03:43:29;;;;;;;8.38;4.85;;;4.10;99.90;;;;;;5026876;28;20048;-65
2022/11/15 03:46:23;;;;;;;9.65;4.55;;;4.10;99.90;;;;;;5027547;28;20102;-63
2022/11/15 03:49:22;;;;;;;8.93;4.90;;;4.10;99.90;;;;;;5030184;28;20060;-65
2022/11/15 03:52:09;;;;;;;;;;;4.20;99.90;;;;;;5029856;28;20110;-64
2022/11/15 03:54:56;;;;;;;5.35;3.97;;;4.10;99.90;;;;;;5026438;28;20387;-65
2022/11/15 03:57:42;;;;;;;5.70;4.30;;;4.20;99.90;;;;;;5023825;28;20516;-64
2022/11/15 04:00:28;;;;;;;9.77;4.22;;;4.20;99.90;;;;;;5028266;28;20673;-65
2022/11/15 04:03:13;;;;;;;5.40;3.35;;;4.20;99.90;;;;;;5024286;28;20518;-64
2022/11/15 04:05:59;;;;;;;6.10;3.55;;;4.20;99.90;;;;;;5023588;28;20057;-62
2022/11/15 04:08:44;;;;;;;5.07;3.25;;;4.20;99.90;;;;;;5027077;28;20244;-63
2022/11/15 04:11:30;;;;;;;12.70;3.28;;;4.20;99.90;;;;;;5025628;28;20557;-63
2022/11/15 04:14:15;;;;;;;8.98;4.15;;;4.20;99.90;;;;;;5030996;28;20126;-64
2022/11/15 04:17:01;;;;;;;7.15;3.92;;;4.10;99.90;;;;;;5032647;28;20293;-64
2022/11/15 04:26:03;;;;;;;7.22;3.53;;;4.20;99.90;;;;;;5030243;28;20517;-64
2022/11/15 04:31:52;;;;;;;4.57;3.33;;;4.20;99.90;;;;;;5029846;28;20060;-63
2022/11/15 04:34:38;;;;;;;5.20;3.45;;;4.20;99.90;;;;;;5027920;28;20106;-64
2022/11/15 04:37:23;;;;;;;6.35;3.92;;;4.30;99.90;;;;;;5024679;28;20080;-64
2022/11/15 04:40:09;;;;;;;4.55;3.40;;;4.20;99.90;;;;;;5030849;28;20056;-64
2022/11/15 04:42:55;;;;;;;5.43;2.95;;;4.20;99.90;;;;;;5032111;28;20423;-64
2022/11/15 04:45:47;;;;;;;7.93;3.22;;;4.20;99.90;;;;;;5034069;28;20060;-67
2022/11/15 04:48:33;;;;;;;7.15;2.55;;;4.20;99.90;;;;;;5036750;28;20052;-65
2022/11/15 04:51:19;;;;;;;6.65;3.00;;;4.30;99.90;;;;;;5034146;28;20063;-64
2022/11/15 04:54:04;;;;;;;5.65;3.08;;;4.30;99.90;;;;;;5028528;28;20188;-64
2022/11/15 04:56:50;;;;;;;9.30;2.88;;;4.40;99.90;;;;;;5026369;28;20063;-63
2022/11/15 04:59:35;;;;;;;5.20;2.72;;;4.40;99.90;;;;;;5032247;28;20064;-63
2022/11/15 05:02:21;;;;;;;6.55;2.97;;;4.40;99.90;;;;;;5029966;28;20351;-64
2022/11/15 05:05:06;;;;;;;6.65;3.42;;;4.40;99.90;;;;;;5027699;28;20336;-64
2022/11/15 05:07:51;;;;;;;8.77;3.20;;;4.40;99.90;;;;;;5033307;28;20060;-62
2022/11/15 05:10:37;;;;;;;4.38;3.03;;;4.40;99.90;;;;;;5030392;28;20653;-63
2022/11/15 05:13:22;;;;;;;3.78;2.58;;;4.40;99.90;;;;;;5027654;28;20508;-63
2022/11/15 05:16:08;;;;;;;7.03;2.72;;;4.40;99.90;;;;;;5024552;28;20099;-63
2022/11/15 05:18:54;;;;;;;5.90;2.63;;;4.40;99.90;;;;;;5026072;28;20558;-63
2022/11/15 05:21:39;;;;;;;6.30;2.92;;;4.40;99.90;;;;;;5025045;28;20060;-64
2022/11/15 05:24:25;;;;;;;3.63;2.20;;;4.40;99.90;;;;;;5027298;28;20451;-64
2022/11/15 05:27:10;;;;;;;5.07;3.08;;;4.40;99.90;;;;;;5027672;28;20056;-65
2022/11/15 05:29:56;;;;;;;6.45;3.08;;;4.40;99.90;;;;;;5025241;28;20641;-63
2022/11/15 05:32:42;;;;;;;10.75;3.58;;;4.30;99.90;;;;;;5030915;28;20550;-64
2022/11/15 05:35:33;;;;;;;4.32;3.00;;;4.30;99.90;;;;;;5025502;28;20257;-63
2022/11/15 05:38:19;;;;;;;4.82;2.90;;;4.30;99.90;;;;;;5023925;28;20119;-64
2022/11/15 05:41:05;;;;;;;13.10;3.05;;;4.30;99.90;;;;;;5025326;28;20068;-64
2022/11/15 05:43:51;;;;;;;5.13;2.55;;;4.30;99.90;;;;;;5026178;28;20495;-62
2022/11/15 05:46:39;;;;;;;3.80;2.83;;;4.20;99.90;;;;;;5027477;28;20064;-64
2022/11/15 05:49:29;;;;;;;3.15;2.85;;;4.20;99.90;;;;;;5032476;28;20213;-64
2022/11/15 05:52:18;;;;;;;7.50;2.85;;;4.20;99.90;;;;;;5028413;28;20111;-63
2022/11/15 05:55:07;;;;;;;5.35;3.10;;;4.10;99.90;;;;;;5029240;28;20099;-64
2022/11/15 05:57:53;;;;;;;6.97;2.90;;;4.10;99.90;;;;;;5028594;28;20056;-64
2022/11/15 06:00:39;;;;;;;6.25;3.15;;;4.00;99.90;;;;;;5028817;28;20144;-64
2022/11/15 06:03:24;;;;;;;2.97;2.10;;;4.00;99.90;;;;;;5026251;28;20087;-64
2022/11/15 06:06:10;;;;;;;3.53;2.72;;;3.90;99.90;;;;;;5025044;28;20507;-63
2022/11/15 06:09:00;;;;;;;3.35;2.35;;;3.90;99.90;;;;;;5027622;28;20126;-64
2022/11/15 06:11:46;;;;;;;5.45;2.97;;;3.90;99.90;;;;;;5029236;28;20161;-63
2022/11/15 06:14:31;;;;;;;5.63;2.58;;;3.90;99.90;;;;;;5026975;28;20060;-64
2022/11/15 06:17:17;;;;;;;5.63;2.60;;;3.90;99.90;;;;;;5027816;28;20082;-63
2022/11/15 06:20:03;;;;;;;10.00;3.60;;;3.90;99.90;;;;;;5024343;28;20402;-64
2022/11/15 06:22:48;;;;;;;6.68;2.60;;;3.90;99.90;;;;;;5028794;28;20044;-64
2022/11/15 06:25:33;;;;;;;5.50;3.03;;;3.80;99.90;;;;;;5028880;28;20474;-64
2022/11/15 06:28:19;;;;;;;11.65;4.50;;;3.80;99.90;;;;;;5026253;28;20141;-64
2022/11/15 06:31:10;;;;;;;5.53;2.80;;;3.80;99.90;;;;;;5027672;28;20056;-64
2022/11/15 06:33:56;;;;;;;6.63;2.65;;;3.80;99.90;;;;;;5025656;28;20059;-64
2022/11/15 06:36:41;;;;;;;5.30;2.85;;;3.80;99.90;;;;;;5023965;28;20072;-64
2022/11/15 06:39:26;;;;;;;7.47;2.70;;;3.80;99.90;;;;;;5026293;28;20060;-63
2022/11/15 06:42:12;;;;;;;6.07;2.47;;;3.80;99.90;;;;;;5027166;28;20137;-63
2022/11/15 06:44:57;;;;;;;6.07;3.00;;;3.80;99.90;;;;;;5031878;28;20095;-63
2022/11/15 06:48:39;;;;;;;8.32;2.80;;;3.90;99.90;;;;;;5054070;28;20215;-54
2022/11/15 06:51:25;;;;;;;5.28;2.97;;;3.80;99.90;;;;;;5057432;28;20095;-54
2022/11/15 06:54:10;;;;;;;3.35;2.55;;;3.90;99.90;;;;;;5058356;28;20690;-56
2022/11/15 06:56:55;;;;;;;6.05;3.08;;;4.10;99.90;;;;;;5059400;28;20293;-53
2022/11/15 06:59:41;;;;;;;5.53;2.92;;;4.30;99.90;;;;;;5057260;28;20169;-54
2022/11/15 07:02:26;;;;;;;6.32;3.20;;;4.60;99.90;;;;;;5057664;28;20098;-56
2022/11/15 07:05:12;;;;;;;7.95;3.50;;;4.90;99.90;;;;;;5054498;28;20086;-56
2022/11/15 07:07:59;;;;;;;7.05;3.05;;;5.30;99.90;;;;;;5056823;28;20051;-54
2022/11/15 07:10:44;;;;;;;5.15;2.65;;;5.60;99.90;;;;;;5054521;28;20059;-54
2022/11/15 07:13:34;;;;;;;8.35;3.60;;;6.00;99.90;;;;;;5056823;28;20616;-55
2022/11/15 07:16:21;;;;;;;7.28;3.42;;;6.40;99.90;;;;;;5052986;28;20717;-55
2022/11/15 07:19:08;;;;;;;9.13;3.28;;;6.80;99.90;;;;;;5058652;28;20056;-56
2022/11/15 07:21:53;;;;;;;7.15;3.55;;;7.10;99.90;;;;;;5056301;28;20064;-55
2022/11/15 07:24:38;;;;;;;10.57;3.47;;;7.40;99.90;;;;;;5054507;28;20056;-54
2022/11/15 07:27:24;;;;;;;3.83;2.88;;;7.80;99.90;;;;;;5055784;28;20149;-55
2022/11/15 07:30:10;;;;;;;5.55;3.17;;;8.20;99.90;;;;;;5056944;28;20055;-57
2022/11/15 07:32:57;;;;;;;5.60;2.72;;;8.60;99.90;;;;;;5060596;28;20080;-54
2022/11/15 07:35:42;;;;;;;7.00;3.20;;;9.00;99.90;;;;;;5054759;28;20203;-54
2022/11/15 07:38:28;;;;;;;4.53;2.80;;;9.30;99.90;;;;;;5050767;28;20052;-56
2022/11/15 07:41:13;;;;;;;4.93;2.38;;;9.60;99.90;;;;;;5054129;28;20051;-54
2022/11/15 07:44:00;;;;;;;4.70;2.47;;;9.90;99.90;;;;;;5062058;28;20097;-54
2022/11/15 07:46:45;;;;;;;5.35;2.90;;;10.10;99.90;;;;;;5054769;28;20048;-54
2022/11/15 07:49:31;;;;;;;5.88;3.55;;;10.30;99.90;;;;;;5056227;28;20055;-54
2022/11/15 07:52:16;;;;;;;8.82;3.22;;;10.60;99.90;;;;;;5052978;28;20074;-54
2022/11/15 07:55:02;;;;;;;6.60;3.17;;;10.80;99.90;;;;;;5055066;28;20075;-54
2022/11/15 07:57:48;;;;;;;8.10;2.97;;;11.10;99.90;;;;;;5055528;28;20083;-51
2022/11/15 08:00:34;;;;;;;7.25;3.13;;;11.40;99.90;;;;;;5042778;28;20052;-53
2022/11/15 08:03:20;;;;;;;4.65;2.65;;;11.70;99.90;;;;;;5045921;28;20113;-49
2022/11/15 08:06:05;;;;;;;10.75;3.05;;;11.90;99.90;;;;;;5039231;28;20095;-52
2022/11/15 08:08:51;;;;;;;5.47;3.25;;;12.10;99.90;;;;;;5041782;28;20051;-53
2022/11/15 08:11:36;;;;;;;3.95;2.53;;;12.30;99.90;;;;;;5040123;28;20051;-52
2022/11/15 08:14:22;;;;;;;8.65;2.58;;;12.50;99.90;;;;;;5043546;28;20051;-52
2022/11/15 08:17:07;;;;;;;5.78;3.30;;;12.70;99.90;;;;;;5041555;28;20079;-54
2022/11/15 08:19:53;;;;;;;3.30;2.67;;;12.90;99.90;;;;;;5039801;28;20071;-53
2022/11/15 08:22:38;;;;;;;3.63;2.88;;;13.00;99.90;;;;;;5041153;28;20194;-51
2022/11/15 08:25:26;;;;;;;4.22;3.00;;;13.10;99.90;;;;;;5038446;28;20109;-53
2022/11/15 08:28:11;;;;;;;5.18;3.25;;;13.20;99.90;;;;;;5041310;28;20500;-53
2022/11/15 08:30:56;;;;;;;9.98;2.90;;;13.30;99.90;;;;;;5041700;28;20052;-51
2022/11/15 08:33:42;;;;;;;6.00;3.05;;;13.40;99.90;;;;;;5044347;28;20096;-48
2022/11/15 08:36:28;;;;;;;10.05;4.28;;;13.50;99.70;;;;;;5037780;28;20047;-49
2022/11/15 08:39:26;;;;;;;7.18;2.95;;;13.60;99.90;;;;;;5038948;28;20114;-50
2022/11/15 08:42:11;;;;;;;9.00;3.00;;;13.80;99.90;;;;;;5040791;28;20455;-49
2022/11/15 08:45:04;;;;;;;3.30;2.78;;;13.90;99.90;;;;;;5043363;28;20604;-52
2022/11/15 08:47:49;;;;;;;4.68;3.15;;;14.10;99.90;;;;;;5040365;28;20390;-51
2022/11/15 08:50:38;;;;;;;8.15;2.95;;;14.50;99.90;;;;;;5039908;28;20052;-53
2022/11/15 08:53:24;;;;;;;9.95;3.40;;;14.70;98.50;;;;;;5040763;28;20095;-55
2022/11/15 08:56:14;;;;;;;10.93;3.17;;;15.10;95.30;;;;;;5038460;28;20836;-54
2022/11/15 08:58:59;;;;;;;4.55;2.78;;;15.30;91.60;;;;;;5039204;28;20109;-54
2022/11/15 09:01:45;;;;;;;5.13;2.72;;;15.20;90.40;;;;;;5042449;28;20557;-52
2022/11/15 09:04:31;;;;;;;5.30;2.85;;;15.00;90.20;;;;;;5040007;28;20059;-53
2022/11/15 09:07:17;;;;;;;3.75;2.60;;;14.90;90.80;;;;;;5037523;28;20060;-53
2022/11/15 09:10:03;;;;;;;7.60;3.10;;;14.60;90.90;;;;;;5039112;28;20048;-55
2022/11/15 09:12:49;;;;;;;6.90;4.13;;;14.60;91.50;;;;;;5041067;28;20098;-53
2022/11/15 09:15:34;;;;;;;5.35;3.58;;;14.40;94.10;;;;;;5041606;28;20051;-55
2022/11/15 09:18:22;;;;;;;5.47;3.10;;;14.50;94.10;;;;;;5041345;28;20099;-61
2022/11/15 09:21:08;;;;;;;6.75;3.33;;;14.60;94.70;;;;;;5040455;28;20469;-55
2022/11/15 09:23:53;;;;;;;4.25;2.35;;;14.90;94.70;;;;;;5038150;28;20067;-54
2022/11/15 09:26:39;;;;;;;5.20;2.70;;;15.20;92.30;;;;;;5038146;28;20059;-56
2022/11/15 09:29:24;;;;;;;5.78;2.45;;;15.50;90.80;;;;;;5036848;28;20581;-55
2022/11/15 09:32:10;;;;;;;5.80;2.65;;;15.90;89.60;;;;;;5039249;28;20056;-54
2022/11/15 09:34:56;;;;;;;4.55;3.08;;;16.20;88.80;;;;;;5038204;28;20067;-52
2022/11/15 09:37:41;;;;;;;4.43;2.60;;;16.30;79.30;;;;;;5039522;28;20102;-53
2022/11/15 09:40:27;;;;;;;4.55;2.72;;;16.30;81.60;;;;;;5035334;28;20426;-53
2022/11/15 09:43:31;;;;;;;4.90;2.92;;;16.20;80.50;;;;;;5039520;28;20656;-54
2022/11/15 09:46:53;;;;;;;6.63;3.70;;;16.00;79.60;;;;;;5038184;28;20060;-52
2022/11/15 09:49:31;;;;;;;4.18;2.95;;;15.70;81.80;;;;;;5039415;28;20140;-54
2022/11/15 09:52:11;;;;;;;8.68;2.85;;;15.50;86.90;;;;;;5040006;28;20040;-52
2022/11/15 09:54:47;;;;;;;9.55;3.15;;;15.40;89.70;;;;;;5041386;28;20048;-53
2022/11/15 09:57:31;;;;;;;5.68;2.95;;;15.30;90.00;;;;;;5035327;28;20076;-54
2022/11/15 10:00:07;;;;;;;4.90;3.00;;;15.20;90.30;;;;;;5040956;28;20098;-57
2022/11/15 10:03:07;;;;;;;7.40;3.47;;;15.20;90.60;;;;;;5038832;28;20083;-54
2022/11/15 10:05:42;;;;;;;8.30;2.90;;;15.10;91.00;;;;;;5035560;28;20732;-54
2022/11/15 10:08:37;;;;;;;7.35;3.15;;;15.00;93.10;;;;;;5043548;28;20103;-53
2022/11/15 10:11:09;;;;;;;4.43;3.25;;;15.00;94.30;;;;;;5036767;28;20051;-52
2022/11/15 10:14:11;;;;;;;6.68;2.70;;;15.10;97.70;;;;;;5042987;28;20238;-54
2022/11/15 10:17:16;;;;;;;4.05;2.90;;;15.40;97.40;;;;;;5036565;28;20040;-54
2022/11/15 10:20:09;;;;;;;6.90;3.58;;;15.50;94.80;;;;;;5038135;28;20306;-55
2022/11/15 10:22:47;;;;;;;11.38;3.25;;;15.60;95.60;;;;;;5036745;28;20514;-53
2022/11/15 10:25:23;;;;;;;11.30;3.15;;;15.70;93.20;;;;;;5038767;28;20067;-54
2022/11/15 10:27:54;;;;;;;5.47;2.75;;;15.90;93.60;;;;;;5036239;28;20048;-53
2022/11/15 10:30:22;;;;;;;4.13;2.33;;;16.20;91.20;;;;;;5039864;28;20419;-54
2022/11/15 10:32:49;;;;;;;4.22;2.00;;;16.40;83.40;;;;;;5039633;28;20480;-57
2022/11/15 10:35:34;;;;;;;3.35;1.95;;;16.50;80.50;;;;;;5038303;28;20124;-55
2022/11/15 10:38:11;;;;;;;3.45;2.55;;;16.30;76.10;;;;;;5039507;28;20048;-53
2022/11/15 10:40:40;;;;;;;4.05;2.05;;;16.10;78.20;;;;;;5035757;28;20041;-55
2022/11/15 10:43:09;;;;;;;4.20;2.05;;;16.00;79.60;;;;;;5050684;28;20044;-53
2022/11/15 10:45:38;;;;;;;6.15;2.20;;;15.80;79.70;;;;;;5038033;28;20471;-53
2022/11/15 10:48:13;;;;;;;7.10;2.97;;;15.70;81.60;;;;;;5040224;28;20364;-54
2022/11/15 10:50:45;;;;;;;5.63;2.47;;;15.50;83.30;;;;;;5039011;28;20048;-54
2022/11/15 10:53:23;;;;;;;8.63;2.78;;;15.30;83.40;;;;;;5038452;28;20059;-54
2022/11/15 10:55:53;;;;;;;7.32;2.50;;;15.10;88.30;;;;;;5041682;28;20087;-55
2022/11/15 10:58:38;;;;;;;4.22;2.78;;;14.90;90.70;;;;;;5046619;28;20154;-54
2022/11/15 11:01:29;;;;;;;4.30;2.30;;;14.80;92.60;;;;;;5038239;28;20530;-57
2022/11/15 11:04:02;;;;;;;3.92;2.50;;;14.60;95.10;;;;;;5038329;28;20387;-53
2022/11/15 11:06:29;;;;;;;3.47;1.90;;;14.50;96.30;;;;;;5035498;28;20061;-54
2022/11/15 11:09:02;;;;;;;8.45;2.95;;;14.40;96.70;;;;;;5038490;28;20421;-54
2022/11/15 11:11:52;;;;;;;6.80;2.55;;;14.10;99.10;;;;;;5037027;28;20470;-54
2022/11/15 11:14:22;;;;;;;4.68;2.33;;;13.90;99.00;;;;;;5038038;28;20106;-52
2022/11/15 11:16:52;;;;;;;3.50;1.80;;;13.80;99.90;;;;;;5036968;28;20143;-55
2022/11/15 11:19:37;;;;;;;3.30;2.17;;;13.70;99.90;;;;;;5036642;28;20158;-53
2022/11/15 11:22:23;;;;;;;3.72;2.50;;;13.60;99.90;;;;;;5038819;28;20053;-53
2022/11/15 11:25:17;;;;;;;5.75;2.17;;;13.50;99.90;;;;;;5039356;28;20813;-53
2022/11/15 11:27:54;;;;;;;5.93;2.28;;;13.40;99.90;;;;;;5033589;28;20451;-53
2022/11/15 11:30:31;;;;;;;5.25;2.85;;;13.30;99.90;;;;;;5035355;28;20067;-55
2022/11/15 11:33:10;;;;;;;4.78;2.45;;;13.20;99.90;;;;;;5036013;28;20043;-54
2022/11/15 11:35:59;;;;;;;6.90;2.72;;;13.10;99.90;;;;;;5040643;28;20519;-54
2022/11/15 11:38:36;;;;;;;5.07;2.08;;;13.00;99.90;;;;;;5049982;28;20434;-52
2022/11/15 11:41:06;;;;;;;6.47;2.80;;;12.90;99.90;;;;;;5038748;28;20044;-53
2022/11/15 11:44:11;;;;;;;9.18;2.92;;;12.90;99.90;;;;;;5039403;28;20045;-52
2022/11/15 11:47:01;;;;;;;6.03;2.42;;;12.90;99.90;;;;;;5041180;28;20160;-53
2022/11/15 11:49:39;;;;;;;4.00;2.60;;;12.90;99.90;;;;;;5040215;28;20045;-53
2022/11/15 11:52:16;;;;;;;3.63;2.60;;;12.90;99.90;;;;;;5042512;28;20977;-54
2022/11/15 11:54:55;;;;;;;4.50;2.92;;;12.90;99.90;;;;;;5040963;28;20226;-52
2022/11/15 11:58:00;;;;;;;5.78;2.67;;;12.90;99.90;;;;;;5054367;28;20044;-51
2022/11/15 12:00:28;;;;;;;3.03;2.38;;;12.90;99.90;;;;;;4999875;28;20049;-53
2022/11/15 12:03:07;;;;;;;5.57;2.92;;;12.90;99.90;;;;;;5040280;28;20044;-54
2022/11/15 12:05:51;;;;;;;3.28;2.50;;;12.90;99.90;;;;;;5042903;28;20131;-55
2022/11/15 12:09:03;;;;;;;4.00;2.47;;;12.80;99.90;;;;;;5040731;28;20083;-57
2022/11/15 12:11:43;;;;;;;6.07;2.78;;;12.80;99.90;;;;;;4980493;28;20362;-57
2022/11/15 12:14:36;;;;;;;4.80;2.85;;;12.70;99.90;;;;;;5033440;28;20063;-57
2022/11/15 12:17:04;;;;;;;6.75;4.00;;;12.60;99.90;;;;;;5031176;28;20069;-56
2022/11/15 12:19:31;;;;;;;11.43;3.30;;;12.60;99.90;;;;;;5037123;28;20119;-56
2022/11/15 12:22:10;;;;;;;5.28;3.47;;;12.50;99.90;;;;;;5042068;28;20214;-57
2022/11/15 12:24:46;;;;;;;9.88;3.63;;;12.50;99.90;;;;;;5041615;28;20048;-53
2022/11/15 12:27:24;;;;;;;5.55;3.42;;;12.50;99.90;;;;;;5040378;28;20158;-56
2022/11/15 12:30:03;;;;;;;5.07;3.33;;;12.50;99.90;;;;;;5038386;28;20045;-55
2022/11/15 12:32:36;;;;;;;5.97;3.83;;;12.40;99.90;;;;;;5039568;28;20539;-55
2022/11/15 12:35:22;;;;;;;5.03;3.55;;;12.40;99.90;;;;;;5040398;28;20051;-56
2022/11/15 12:37:51;;;;;;;4.35;3.00;;;12.30;99.90;;;;;;5039693;28;20392;-53
2022/11/15 12:40:21;;;;;;;4.63;3.00;;;12.30;99.90;;;;;;5042477;28;20039;-54
2022/11/15 12:43:30;;;;;;;5.93;2.80;;;12.30;99.90;;;;;;5041397;28;20311;-53
2022/11/15 12:46:04;;;;;;;6.05;3.53;;;12.30;99.90;;;;;;5040112;28;20558;-53
2022/11/15 12:48:37;;;;;;;4.25;3.55;;;12.30;99.90;;;;;;5044030;28;20312;-54
2022/11/15 12:51:04;;;;;;;3.00;2.60;;;12.30;99.90;;;;;;5039781;28;20064;-55
2022/11/15 12:53:33;;;;;;;6.80;3.60;;;12.30;99.90;;;;;;5039186;28;20280;-55
2022/11/15 12:56:12;;;;;;;10.63;4.30;;;12.30;99.90;;;;;;5038132;28;20127;-54
2022/11/15 12:59:02;;;;;;;4.32;3.13;;;12.30;99.90;;;;;;5040027;28;20044;-53
2022/11/15 13:01:37;;;;;;;5.57;3.35;;;12.30;99.90;;;;;;5037459;28;20067;-54
2022/11/15 13:04:19;;;;;;;4.68;3.45;;;12.30;99.90;;;;;;5038940;28;20805;-53
2022/11/15 13:06:53;;;;;;;7.10;3.72;;;12.30;99.90;;;;;;5041655;28;20594;-55
2022/11/15 13:09:29;;;;;;;3.97;3.05;;;12.30;99.90;;;;;;5039753;28;20052;-55
2022/11/15 13:11:57;;;;;;;6.38;3.97;;;12.30;99.90;;;;;;5039750;28;20064;-51
2022/11/15 13:14:44;;;;;;;6.05;4.25;;;12.30;99.90;;;;;;5041108;28;20053;-54
2022/11/15 13:17:34;;;;;;;5.78;3.50;;;12.30;99.90;;;;;;5037991;28;20043;-56
2022/11/15 13:20:07;;;;;;;7.10;3.75;;;12.30;99.90;;;;;;5039481;28;20542;-55
2022/11/15 13:22:54;;;;;;;5.15;3.35;;;12.30;99.90;;;;;;5041222;28;20048;-55
2022/11/15 13:25:36;;;;;;;4.65;3.53;;;12.20;99.90;;;;;;5040163;28;20056;-55
2022/11/15 13:28:19;;;;;;;5.28;3.13;;;12.20;99.90;;;;;;5040905;28;20454;-55
2022/11/15 13:30:52;;;;;;;5.00;2.92;;;12.20;99.90;;;;;;5040639;28;20045;-54
2022/11/15 13:33:30;;;;;;;4.85;3.58;;;12.20;99.90;;;;;;5037324;28;20041;-57
2022/11/15 13:36:13;;;;;;;2.90;2.33;;;12.20;99.90;;;;;;5043096;28;20048;-55
2022/11/15 13:38:41;;;;;;;3.63;3.30;;;12.20;99.90;;;;;;5040149;28;20393;-56
2022/11/15 13:41:16;;;;;;;3.97;3.40;;;12.10;99.90;;;;;;5042908;28;20055;-56
2022/11/15 13:43:43;;;;;;;8.75;5.18;;;12.10;99.90;;;;;;5038795;28;20572;-56
2022/11/15 13:46:12;;;;;;;6.90;3.50;;;12.00;99.90;;;;;;5040549;28;20048;-54
2022/11/15 13:48:40;;;;;;;7.00;3.20;;;12.00;99.90;;;;;;5039799;28;20573;-56
2022/11/15 13:51:16;;;;;;;6.15;4.03;;;12.00;99.90;;;;;;5040838;28;20037;-57
2022/11/15 13:53:48;;;;;;;9.82;4.35;;;11.90;99.90;;;;;;5039095;28;20052;-55
2022/11/15 13:56:18;;;;;;;10.20;3.90;;;11.90;99.90;;;;;;5041925;28;20048;-56
2022/11/15 13:58:46;;;;;;;8.57;3.20;;;11.80;99.90;;;;;;5035767;28;20521;-55
2022/11/15 14:01:19;;;;;;;6.13;3.53;;;11.80;99.90;;;;;;5040629;28;20394;-57
2022/11/15 14:03:58;;;;;;;4.07;3.58;;;11.70;99.90;;;;;;5040236;28;20041;-56
2022/11/15 14:06:30;;;;;;;6.38;4.15;;;11.70;99.90;;;;;;5042639;28;20647;-54
2022/11/15 14:09:02;;;;;;;8.88;3.53;;;11.70;99.90;;;;;;5039398;28;20505;-56
2022/11/15 14:11:29;;;;;;;4.70;3.75;;;11.70;99.90;;;;;;5043831;28;20356;-54
2022/11/15 14:14:08;;;;;;;6.00;3.00;;;11.70;99.90;;;;;;5041867;28;20238;-57
2022/11/15 14:16:45;;;;;;;8.02;3.03;;;11.70;99.90;;;;;;5047555;28;20076;-55
2022/11/15 14:19:33;;;;;;;4.85;3.08;;;11.70;99.90;;;;;;5041813;28;20436;-56
2022/11/15 14:22:25;;;;;;;8.65;2.83;;;11.70;99.90;;;;;;5037525;28;20136;-57
2022/11/15 14:25:12;;;;;;;4.05;3.45;;;11.70;99.90;;;;;;5039546;28;20513;-54
2022/11/15 14:27:41;;;;;;;5.72;2.50;;;11.70;99.90;;;;;;5037145;28;20648;-54
2022/11/15 14:30:18;;;;;;;10.35;3.13;;;11.70;99.90;;;;;;5037700;28;20135;-55
2022/11/15 14:32:47;;;;;;;7.50;2.97;;;11.60;99.90;;;;;;5040330;28;20120;-54
2022/11/15 14:35:20;;;;;;;9.52;2.90;;;11.60;99.90;;;;;;5041221;28;20127;-57